Time;durP1;ratioP1;P1;durP2;ratioP2;P2;SDS_P1;SDS_P2;PMS_P1;PMS_P2;Temp;Humidity;BMP_temperature;BMP_pressure;BME280_temperature;BME280_humidity;BME280_pressure;Samples;Min_cycle;Max_cycle;Signal;HPM_P1;HPM_P2
2022/05/27 00:01:02;;;;;;;;;;;;;;;16.97;59.69;100832.97;4995929;28;19971;-28
2022/05/27 00:03:27;;;;;;;;;;;;;;;16.97;59.51;100819.66;4993981;28;19913;-28
2022/05/27 00:05:52;;;;;;;;;;;;;;;17.00;59.59;100829.31;4994367;28;19913;-28
2022/05/27 00:08:17;;;;;;;;;;;;;;;17.00;59.40;100830.19;4994311;28;19920;-27
2022/05/27 00:10:43;;;;;;;;;;;;;;;17.01;59.35;100831.94;4994291;28;19921;-27
2022/05/27 00:13:08;;;;;;;;;;;;;;;17.00;59.60;100832.88;4995988;28;20401;-28
2022/05/27 00:15:33;;;;;;;;;;;;;;;17.03;59.20;100830.09;4995890;28;19916;-28
2022/05/27 00:17:58;;;;;;;;;;;;;;;17.02;59.25;100828.38;4993224;28;19913;-28
2022/05/27 00:20:24;;;;;;;;;;;;;;;17.02;59.64;100833.69;4991921;28;19910;-28
2022/05/27 00:22:49;;;;;;;;;;;;;;;17.01;59.42;100831.94;4994209;28;20258;-28
2022/05/27 00:25:14;;;;;;;;;;;;;;;17.02;59.33;100825.72;4996493;28;20389;-28
2022/05/27 00:27:39;;;;;;;;;;;;;;;17.02;59.30;100828.38;4998587;28;19941;-27
2022/05/27 00:30:05;;;;;;;;;;;;;;;17.04;59.07;100826.50;4994686;28;19920;-28
2022/05/27 00:32:30;;;;;;;;;;;;;;;17.06;58.52;100829.16;5000512;28;20000;-28
2022/05/27 00:34:55;;;;;;;;;;;;;;;17.04;59.10;100833.66;5000601;28;19937;-28
2022/05/27 00:37:21;;;;;;;;;;;;;;;17.03;59.07;100824.78;4998953;28;19959;-27
2022/05/27 00:39:46;;;;;;;;;;;;;;;17.02;58.93;100824.81;4997375;28;19909;-28
2022/05/27 00:42:11;;;;;;;;;;;;;;;17.01;58.83;100831.94;4979050;28;19910;-28
2022/05/27 00:44:36;;;;;;;;;;;;;;;17.02;59.39;100836.38;4995288;28;19956;-27
2022/05/27 00:47:03;;;;;;;;;;;;;;;17.02;58.94;100833.69;4997161;28;19913;-27
2022/05/27 00:49:28;;;;;;;;;;;;;;;17.02;58.94;100839.03;4980939;28;19917;-28
2022/05/27 00:52:09;;;;;;;;;;;;;;;17.03;58.88;100835.44;4980262;28;20349;-27
2022/05/27 00:54:35;;;;;;;;;;;;;;;17.02;58.95;100843.47;4986204;28;19909;-28
2022/05/27 00:57:02;;;;;;;;;;;;;;;17.03;58.88;100845.22;4996354;28;19909;-27
2022/05/27 00:59:34;;;;;;;;;;;;;;;17.03;58.17;100839.88;4996441;28;20362;-27
2022/05/27 01:01:59;;;;;;;;;;;;;;;17.01;58.69;100839.06;4983522;28;20302;-28
2022/05/27 01:04:26;;;;;;;;;;;;;;;17.00;58.44;100846.19;4994466;28;19914;-28
2022/05/27 01:06:51;;;;;;;;;;;;;;;17.00;58.55;100843.53;4990052;28;19921;-27
2022/05/27 01:09:16;;;;;;;;;;;;;;;16.98;58.33;100842.72;4993795;28;19921;-28
2022/05/27 01:11:50;;;;;;;;;;;;;;;16.97;59.04;100846.28;4977633;28;19917;-28
2022/05/27 01:14:19;;;;;;;;;;;;;;;16.97;58.06;100846.28;4993351;28;19910;-27
2022/05/27 01:16:59;;;;;;;;;;;;;;;16.95;58.36;100845.47;4977440;28;20051;-27
2022/05/27 01:22:33;;;;;;;;;;;;;;;16.94;58.46;100851.72;4995236;28;19992;-28
2022/05/27 01:24:58;;;;;;;;;;;;;;;16.92;58.67;100854.44;4999227;28;20320;-28
2022/05/27 01:27:37;;;;;;;;;;;;;;;16.91;58.78;100846.50;4998058;28;19920;-27
2022/05/27 01:30:18;;;;;;;;;;;;;;;16.90;58.73;100847.41;4977751;28;19922;-28
2022/05/27 01:32:52;;;;;;;;;;;;;;;16.89;58.93;100853.66;4981440;28;19914;-27
2022/05/27 01:35:27;;;;;;;;;;;;;;;16.90;59.58;100852.72;4994110;28;19936;-27
2022/05/27 01:38:05;;;;;;;;;;;;;;;16.88;59.63;100849.25;4978000;28;19933;-27
2022/05/27 01:40:30;;;;;;;;;;;;;;;16.87;59.59;100848.38;4984097;28;19913;-28
2022/05/27 01:43:03;;;;;;;;;;;;;;;16.88;59.53;100843.94;4998954;28;19917;-27
2022/05/27 01:45:51;;;;;;;;;;;;;;;16.86;58.92;100848.44;4980906;28;19953;-27
2022/05/27 01:48:17;;;;;;;;;;;;;;;16.86;59.47;100837.78;4964591;28;20443;-28
2022/05/27 01:50:43;;;;;;;;;;;;;;;16.85;59.47;100846.69;4999929;28;19964;-27
2022/05/27 01:53:11;;;;;;;;;;;;;;;16.83;59.54;100837.88;4976946;28;19914;-28
2022/05/27 01:55:44;;;;;;;;;;;;;;;16.82;59.05;100836.13;4992499;28;19918;-28
2022/05/27 01:58:14;;;;;;;;;;;;;;;16.80;59.55;100823.75;4971282;28;19909;-27
2022/05/27 02:00:40;;;;;;;;;;;;;;;16.80;59.14;100829.06;4993613;28;19946;-27
2022/05/27 02:03:06;;;;;;;;;;;;;;;16.78;59.15;100830.91;4980307;28;19917;-27
2022/05/27 02:05:34;;;;;;;;;;;;;;;16.76;59.42;100827.44;4992550;28;19914;-28
2022/05/27 02:08:17;;;;;;;;;;;;;;;16.76;60.00;100823.91;4990696;28;19967;-28
2022/05/27 02:10:46;;;;;;;;;;;;;;;16.75;59.41;100824.81;4986062;28;19925;-27
2022/05/27 02:13:12;;;;;;;;;;;;;;;16.72;59.38;100823.13;4979554;28;19988;-27
2022/05/27 02:15:42;;;;;;;;;;;;;;;16.71;59.36;100817.84;5002769;28;20316;-27
2022/05/27 02:18:21;;;;;;;;;;;;;;;16.70;59.63;100814.31;4984216;28;19921;-28
2022/05/27 02:20:54;;;;;;;;;;;;;;;16.68;59.56;100814.34;4983377;28;20362;-28
2022/05/27 02:23:19;;;;;;;;;;;;;;;16.67;59.94;100809.09;4996698;28;19964;-28
2022/05/27 02:25:44;;;;;;;;;;;;;;;16.65;59.93;100813.59;4996450;28;19918;-28
2022/05/27 02:28:16;;;;;;;;;;;;;;;16.65;60.04;100809.16;4992832;28;19910;-28
2022/05/27 02:30:42;;;;;;;;;;;;;;;16.63;60.66;100811.00;4994832;28;19914;-28
2022/05/27 02:35:52;;;;;;;;;;;;;;;16.60;61.18;100799.56;4987891;28;19932;-29
2022/05/27 02:38:18;;;;;;;;;;;;;;;16.60;61.83;100805.75;5000454;28;20004;-29
2022/05/27 02:40:58;;;;;;;;;;;;;;;16.61;61.60;100806.63;5000601;28;20000;-29
2022/05/27 02:43:30;;;;;;;;;;;;;;;16.61;61.59;100801.31;4989480;28;19920;-29
2022/05/27 02:46:01;;;;;;;;;;;;;;;16.61;61.43;100796.00;4985743;28;20320;-29
2022/05/27 02:48:30;;;;;;;;;;;;;;;16.59;61.18;100801.34;4985866;28;19917;-29
2022/05/27 02:51:04;;;;;;;;;;;;;;;16.59;61.72;100797.81;4995721;28;19968;-29
2022/05/27 02:53:37;;;;;;;;;;;;;;;16.58;61.58;100793.41;4979464;28;19968;-29
2022/05/27 02:56:16;;;;;;;;;;;;;;;16.58;62.11;100801.41;4978647;28;19909;-29
2022/05/27 02:58:41;;;;;;;;;;;;;;;16.59;61.86;100797.81;4978928;28;20003;-29
2022/05/27 03:01:06;;;;;;;;;;;;;;;16.57;61.56;100792.53;4971821;28;20189;-29
2022/05/27 03:03:32;;;;;;;;;;;;;;;16.58;62.16;100788.09;4994687;28;19914;-29
2022/05/27 03:06:11;;;;;;;;;;;;;;;16.55;62.16;100792.59;4993906;28;19910;-29
2022/05/27 03:08:45;;;;;;;;;;;;;;;16.56;62.54;100801.44;4994182;28;20440;-29
2022/05/27 03:11:10;;;;;;;;;;;;;;;16.55;62.21;100797.91;4994442;28;19941;-29
2022/05/27 03:14:08;;;;;;;;;;;;;;;16.55;62.99;100797.06;4997381;28;19960;-29
2022/05/27 03:16:52;;;;;;;;;;;;;;;16.55;63.29;100792.59;4972903;28;19917;-29
2022/05/27 03:19:21;;;;;;;;;;;;;;;16.52;63.29;100790.03;4995943;28;19921;-29
2022/05/27 03:21:52;;;;;;;;;;;;;;;16.52;63.42;100798.03;4978442;28;19909;-29
2022/05/27 03:24:37;;;;;;;;;;;;;;;16.51;63.85;100796.25;4993738;28;19910;-29
2022/05/27 03:27:03;;;;;;;;;;;;;;;16.47;64.58;100791.97;4989938;28;19925;-29
2022/05/27 03:29:29;;;;;;;;;;;;;;;16.45;64.81;100787.63;4993483;28;19964;-29
2022/05/27 03:31:58;;;;;;;;;;;;;;;16.44;65.24;100784.06;4982247;28;19917;-29
2022/05/27 03:34:23;;;;;;;;;;;;;;;16.43;64.83;100782.34;4987606;28;20439;-29
2022/05/27 03:36:51;;;;;;;;;;;;;;;16.45;64.47;100774.31;4995516;28;19910;-29
2022/05/27 03:39:17;;;;;;;;;;;;;;;16.41;65.06;100773.53;4981559;28;20086;-29
2022/05/27 03:41:45;;;;;;;;;;;;;;;16.40;64.74;100774.44;4978446;28;20382;-29
2022/05/27 03:44:13;;;;;;;;;;;;;;;16.40;64.54;100774.44;4983316;28;19959;-29
2022/05/27 03:46:38;;;;;;;;;;;;;;;16.39;64.59;100770.94;4978900;28;19909;-29
2022/05/27 03:49:04;;;;;;;;;;;;;;;16.36;65.67;100784.34;4991828;28;19936;-29
2022/05/27 03:51:30;;;;;;;;;;;;;;;16.34;65.38;100777.31;4989148;28;19937;-29
2022/05/27 03:54:05;;;;;;;;;;;;;;;16.31;65.57;100775.63;4983531;28;19965;-29
2022/05/27 03:56:32;;;;;;;;;;;;;;;16.32;65.71;100771.16;5001548;28;20000;-29
2022/05/27 03:58:57;;;;;;;;;;;;;;;16.29;65.62;100770.34;4999573;28;19929;-29
2022/05/27 04:01:26;;;;;;;;;;;;;;;16.29;65.58;100770.34;4998197;28;19914;-29
2022/05/27 04:03:52;;;;;;;;;;;;;;;16.28;65.82;100768.59;4995291;28;20016;-29
2022/05/27 04:06:17;;;;;;;;;;;;;;;16.29;65.91;100773.00;4995430;28;19992;-29
2022/05/27 04:08:42;;;;;;;;;;;;;;;16.30;65.42;100773.88;4993543;28;19917;-29
2022/05/27 04:11:07;;;;;;;;;;;;;;;16.28;65.70;100773.91;4995864;28;20008;-29
2022/05/27 04:13:33;;;;;;;;;;;;;;;16.27;66.03;100773.97;4993815;28;20006;-29
2022/05/27 04:15:58;;;;;;;;;;;;;;;16.28;65.51;100778.38;4996393;28;19996;-29
2022/05/27 04:18:23;;;;;;;;;;;;;;;16.26;65.37;100781.09;4977938;28;19929;-29
2022/05/27 04:20:48;;;;;;;;;;;;;;;16.26;66.04;100775.78;4993492;28;19910;-29
2022/05/27 04:23:14;;;;;;;;;;;;;;;16.25;66.00;100776.69;4994544;28;19918;-29
2022/05/27 04:25:39;;;;;;;;;;;;;;;16.24;65.85;100782.91;4992383;28;20285;-29
2022/05/27 04:28:04;;;;;;;;;;;;;;;16.22;66.12;100787.44;4994864;28;20321;-29
2022/05/27 04:30:30;;;;;;;;;;;;;;;16.22;66.07;100784.78;4993083;28;20552;-29
2022/05/27 04:32:55;;;;;;;;;;;;;;;16.22;66.16;100779.44;4991548;28;19957;-29
2022/05/27 04:35:22;;;;;;;;;;;;;;;16.21;65.85;100780.34;4993436;28;20024;-29
2022/05/27 04:37:47;;;;;;;;;;;;;;;16.21;66.05;100784.81;4993608;28;20280;-29
2022/05/27 04:40:12;;;;;;;;;;;;;;;16.19;66.35;100778.66;4992366;28;19909;-29
2022/05/27 04:42:38;;;;;;;;;;;;;;;16.17;66.41;100776.03;4993681;28;20417;-29
2022/05/27 04:45:03;;;;;;;;;;;;;;;16.16;67.00;100780.50;4979156;28;20052;-29
2022/05/27 04:47:29;;;;;;;;;;;;;;;16.16;67.48;100779.63;4993847;28;19967;-29
2022/05/27 04:49:54;;;;;;;;;;;;;;;16.14;68.01;100776.16;4977302;28;20346;-29
2022/05/27 04:52:29;;;;;;;;;;;;;;;16.10;68.33;100779.81;4996179;28;19937;-29
2022/05/27 04:54:55;;;;;;;;;;;;;;;16.09;67.75;100781.59;4992012;28;19921;-29
2022/05/27 04:57:31;;;;;;;;;;;;;;;16.10;68.02;100779.81;4991943;28;19910;-29
2022/05/27 04:59:56;;;;;;;;;;;;;;;16.08;68.11;100797.63;4994711;28;20563;-30
2022/05/27 05:02:22;;;;;;;;;;;;;;;16.03;68.75;100797.75;4998927;28;20012;-29
2022/05/27 05:04:47;;;;;;;;;;;;;;;16.04;68.54;100791.50;4999054;28;19960;-29
2022/05/27 05:07:13;;;;;;;;;;;;;;;16.02;68.71;100796.91;4999194;28;19918;-29
2022/05/27 05:09:39;;;;;;;;;;;;;;;16.05;68.34;100792.38;5000754;28;19921;-29
2022/05/27 05:12:04;;;;;;;;;;;;;;;16.04;67.89;100794.16;4996362;28;19925;-29
2022/05/27 05:14:30;;;;;;;;;;;;;;;16.04;68.19;100791.50;4993861;28;19952;-29
2022/05/27 05:16:55;;;;;;;;;;;;;;;16.05;68.43;100789.72;4992402;28;19914;-29
2022/05/27 05:19:20;;;;;;;;;;;;;;;16.03;68.07;100788.00;4993633;28;19909;-29
2022/05/27 05:21:45;;;;;;;;;;;;;;;16.02;68.64;100788.03;4993140;28;19964;-29
2022/05/27 05:24:11;;;;;;;;;;;;;;;16.02;68.53;100788.03;4990910;28;20000;-29
2022/05/27 05:26:37;;;;;;;;;;;;;;;16.00;67.81;100792.50;4994566;28;19929;-29
2022/05/27 05:29:02;;;;;;;;;;;;;;;16.00;68.16;100833.28;4986331;28;19920;-29
2022/05/27 05:31:27;;;;;;;;;;;;;;;15.96;68.91;100883.97;4976045;28;19921;-29
2022/05/27 05:33:58;;;;;;;;;;;;;;;15.94;67.57;100875.13;4993064;28;19917;-29
2022/05/27 05:36:23;;;;;;;;;;;;;;;15.90;67.22;100859.25;4993808;28;20056;-29
2022/05/27 05:38:48;;;;;;;;;;;;;;;15.86;66.88;100872.69;4992737;28;20395;-29
2022/05/27 05:41:13;;;;;;;;;;;;;;;15.81;66.48;100864.84;4993143;28;20417;-29
2022/05/27 05:43:39;;;;;;;;;;;;;;;15.75;66.36;100828.66;4976191;28;20362;-29
2022/05/27 05:46:04;;;;;;;;;;;;;;;15.69;66.26;100834.16;4991795;28;19917;-29
2022/05/27 05:48:29;;;;;;;;;;;;;;;15.64;66.30;100846.72;4993049;28;19910;-29
2022/05/27 05:50:54;;;;;;;;;;;;;;;15.57;66.43;100850.44;4991195;28;20337;-29
2022/05/27 05:53:19;;;;;;;;;;;;;;;15.52;65.98;100848.78;4998206;28;21324;-29
2022/05/27 05:55:45;;;;;;;;;;;;;;;15.48;66.22;100849.75;4996345;28;20446;-29
2022/05/27 05:58:10;;;;;;;;;;;;;;;15.46;66.16;100848.94;4982504;28;20377;-29
2022/05/27 06:00:35;;;;;;;;;;;;;;;15.43;65.94;100842.81;4994935;28;20468;-29
2022/05/27 06:03:00;;;;;;;;;;;;;;;15.39;65.64;100842.94;4991930;28;20330;-29
2022/05/27 06:05:26;;;;;;;;;;;;;;;15.37;65.74;100843.84;4993434;28;20297;-29
2022/05/27 06:07:52;;;;;;;;;;;;;;;15.34;65.78;100839.50;4977959;28;20402;-30
2022/05/27 06:10:17;;;;;;;;;;;;;;;15.33;65.64;100839.53;4991399;28;19922;-29
2022/05/27 06:12:42;;;;;;;;;;;;;;;15.29;65.87;100845.84;4992244;28;19932;-29
2022/05/27 06:15:09;;;;;;;;;;;;;;;15.29;65.56;100851.16;4975060;28;19914;-29
2022/05/27 06:17:35;;;;;;;;;;;;;;;15.27;65.50;100868.03;4975649;28;20285;-29
2022/05/27 06:20:00;;;;;;;;;;;;;;;15.26;65.54;100868.06;4986552;28;19932;-29
2022/05/27 06:22:25;;;;;;;;;;;;;;;15.24;65.37;100862.78;4995831;28;19914;-29
2022/05/27 06:24:51;;;;;;;;;;;;;;;15.23;65.41;100871.69;4972778;28;20298;-30
2022/05/27 06:27:16;;;;;;;;;;;;;;;15.22;65.53;100874.38;4993795;28;20429;-29
2022/05/27 06:35:09;;;;;;;;;;;;;;;15.20;65.22;100869.09;4991274;28;19917;-29
2022/05/27 06:37:35;;;;;;;;;;;;;;;15.20;65.24;100874.41;4991109;28;19910;-29
2022/05/27 06:40:00;;;;;;;;;;;;;;;15.20;65.18;100885.03;4977113;28;19925;-29
2022/05/27 06:42:25;;;;;;;;;;;;;;;15.20;65.25;100879.72;4975960;28;20326;-29
2022/05/27 06:44:50;;;;;;;;;;;;;;;15.20;64.97;100878.88;4991910;28;19921;-29
2022/05/27 06:47:16;;;;;;;;;;;;;;;15.19;65.09;100871.78;4991606;28;19909;-29
2022/05/27 06:49:44;;;;;;;;;;;;;;;15.19;65.00;100872.66;4991400;28;19980;-29
2022/05/27 06:52:09;;;;;;;;;;;;;;;15.18;65.18;100870.94;4993156;28;19917;-29
2022/05/27 06:54:35;;;;;;;;;;;;;;;15.18;65.16;100892.19;4976418;28;19909;-29
2022/05/27 06:57:00;;;;;;;;;;;;;;;15.18;65.01;100896.59;4974649;28;19936;-29
2022/05/27 06:59:26;;;;;;;;;;;;;;;15.18;65.01;100891.28;4976721;28;19914;-29
2022/05/27 07:01:51;;;;;;;;;;;;;;;15.18;65.08;100892.19;4989800;28;19914;-30
2022/05/27 07:04:19;;;;;;;;;;;;;;;15.17;64.78;100890.41;4995672;28;19909;-29
2022/05/27 07:06:45;;;;;;;;;;;;;;;15.18;64.79;100908.13;4994206;28;19920;-29
2022/05/27 07:09:11;;;;;;;;;;;;;;;15.18;64.80;100905.47;4992774;28;19913;-29
2022/05/27 07:11:39;;;;;;;;;;;;;;;15.19;64.95;100906.31;4992932;28;19917;-29
2022/05/27 07:14:05;;;;;;;;;;;;;;;15.18;64.83;100897.50;4994624;28;20342;-29
2022/05/27 07:16:30;;;;;;;;;;;;;;;15.19;64.87;100896.56;4993230;28;20010;-29
2022/05/27 07:18:56;;;;;;;;;;;;;;;15.20;64.98;100905.44;4996966;28;19921;-29
2022/05/27 07:21:21;;;;;;;;;;;;;;;15.19;65.06;100907.19;4996502;28;20370;-29
2022/05/27 07:23:46;;;;;;;;;;;;;;;15.20;64.98;100903.63;4991623;28;20418;-29
2022/05/27 07:26:11;;;;;;;;;;;;;;;15.21;65.00;100907.16;4995190;28;20378;-29
2022/05/27 07:28:37;;;;;;;;;;;;;;;15.21;65.16;100897.38;4994940;28;19910;-29
2022/05/27 07:31:02;;;;;;;;;;;;;;;15.22;64.92;100893.84;4993585;28;19913;-29
2022/05/27 07:33:28;;;;;;;;;;;;;;;15.23;64.90;100890.28;4995845;28;20393;-29
2022/05/27 07:35:53;;;;;;;;;;;;;;;15.24;64.90;100886.69;4993636;28;19924;-29
2022/05/27 07:38:18;;;;;;;;;;;;;;;15.26;64.76;100884.00;4992087;28;19916;-29
2022/05/27 07:40:43;;;;;;;;;;;;;;;15.27;64.87;100891.94;4995745;28;19920;-29
2022/05/27 07:43:09;;;;;;;;;;;;;;;15.28;64.75;100890.16;4996289;28;19922;-29
2022/05/27 07:45:37;;;;;;;;;;;;;;;15.30;64.91;100887.47;4994270;28;19918;-29
2022/05/27 07:48:03;;;;;;;;;;;;;;;15.31;65.03;100886.56;4979585;28;19921;-29
2022/05/27 07:50:28;;;;;;;;;;;;;;;15.32;64.91;100893.59;4995230;28;20032;-29
2022/05/27 07:52:53;;;;;;;;;;;;;;;15.33;64.89;100882.06;4991841;28;19917;-29
2022/05/27 07:55:19;;;;;;;;;;;;;;;15.34;64.77;100892.66;4977854;28;19988;-29
2022/05/27 07:57:45;;;;;;;;;;;;;;;15.34;65.09;100891.78;4993103;28;19928;-29
2022/05/27 08:00:16;;;;;;;;;;;;;;;15.37;64.93;100891.69;4995867;28;20365;-29
2022/05/27 08:02:41;;;;;;;;;;;;;;;15.38;65.37;100894.31;4993497;28;19910;-29
2022/05/27 08:05:08;;;;;;;;;;;;;;;15.41;65.46;100900.47;4993576;28;19925;-29
2022/05/27 08:07:33;;;;;;;;;;;;;;;15.42;65.48;100894.22;4996820;28;19922;-29
2022/05/27 08:09:58;;;;;;;;;;;;;;;15.43;65.25;100880.91;4976453;28;19917;-29
2022/05/27 08:12:24;;;;;;;;;;;;;;;15.48;65.96;100886.97;4966793;28;20022;-29
2022/05/27 08:14:49;;;;;;;;;;;;;;;15.55;66.40;100878.84;4992850;28;20393;-29
2022/05/27 08:17:14;;;;;;;;;;;;;;;15.57;66.05;100877.03;4991206;28;20023;-29
2022/05/27 08:19:39;;;;;;;;;;;;;;;15.61;66.72;100884.00;4994908;28;20426;-29
2022/05/27 08:22:05;;;;;;;;;;;;;;;15.66;66.68;100884.75;4994421;28;20330;-29
2022/05/27 08:24:30;;;;;;;;;;;;;;;15.69;67.41;100882.00;4992660;28;19916;-29
2022/05/27 08:26:55;;;;;;;;;;;;;;;15.75;67.18;100880.97;4995363;28;20433;-29
2022/05/27 08:29:20;;;;;;;;;;;;;;;15.78;66.86;100871.09;4992204;28;20385;-29
2022/05/27 08:31:45;;;;;;;;;;;;;;;15.84;67.10;100874.53;4993478;28;19997;-29
2022/05/27 08:39:39;;;;;;;;;;;;;;;16.08;66.63;100875.66;4995312;28;20393;-29
2022/05/27 08:42:23;;;;;;;;;;;;;;;16.16;66.92;100872.75;4997184;28;19918;-29
2022/05/27 08:44:53;;;;;;;;;;;;;;;16.24;66.74;100884.03;5002250;28;19914;-29
2022/05/27 08:47:21;;;;;;;;;;;;;;;16.35;66.56;100890.84;4980395;28;19956;-29
2022/05/27 08:49:47;;;;;;;;;;;;;;;16.44;66.58;100889.69;4997386;28;20340;-29
2022/05/27 08:52:12;;;;;;;;;;;;;;;16.50;66.04;100890.38;4981383;28;19913;-29
2022/05/27 08:54:52;;;;;;;;;;;;;;;16.58;66.68;100889.28;4980656;28;19936;-29
2022/05/27 09:00:07;;;;;;;;;;;;;;;16.70;64.28;100880.88;4992582;28;19925;-29
2022/05/27 09:02:39;;;;;;;;;;;;;;;16.73;62.69;100875.47;4998079;28;19945;-29
2022/05/27 09:05:16;;;;;;;;;;;;;;;16.74;61.95;100865.69;4997581;28;19913;-29
2022/05/27 09:07:59;;;;;;;;;;;;;;;16.74;61.74;100871.88;5000397;28;19909;-29
2022/05/27 09:10:47;;;;;;;;;;;;;;;16.75;61.52;100873.66;4995217;28;19925;-29
2022/05/27 09:13:16;;;;;;;;;;;;;;;16.80;60.93;100865.47;4992072;28;19923;-29
2022/05/27 09:15:45;;;;;;;;;;;;;;;16.85;60.61;100860.91;4979155;28;19923;-29
2022/05/27 09:18:14;;;;;;;;;;;;;;;16.89;60.12;100870.53;4995853;28;19917;-29
2022/05/27 09:20:45;;;;;;;;;;;;;;;16.94;59.80;100865.03;4991444;28;19916;-30
2022/05/27 09:23:23;;;;;;;;;;;;;;;17.01;59.10;100869.22;5000184;28;19936;-29
2022/05/27 09:26:07;;;;;;;;;;;;;;;17.08;58.71;100869.06;4996137;28;20451;-29
2022/05/27 09:28:39;;;;;;;;;;;;;;;17.13;58.31;100867.13;4995433;28;20056;-29
2022/05/27 09:31:05;;;;;;;;;;;;;;;17.17;58.59;100866.09;4980445;28;19946;-29
2022/05/27 09:33:31;;;;;;;;;;;;;;;17.21;58.52;100851.75;4978538;28;19918;-29
2022/05/27 09:35:56;;;;;;;;;;;;;;;17.27;58.91;100854.19;4993655;28;20061;-29
2022/05/27 09:38:22;;;;;;;;;;;;;;;17.37;58.49;100837.91;4991029;28;20277;-29
2022/05/27 09:40:50;;;;;;;;;;;;;;;17.47;59.36;100847.31;4994996;28;19913;-29
2022/05/27 09:43:15;;;;;;;;;;;;;;;17.59;57.78;100840.66;4988594;28;19918;-29
2022/05/27 09:45:40;;;;;;;;;;;;;;;17.71;57.05;100836.69;4994226;28;19920;-29
2022/05/27 09:48:06;;;;;;;;;;;;;;;17.82;56.43;100833.63;4993671;28;19913;-29
2022/05/27 09:50:40;;;;;;;;;;;;;;;17.89;55.69;100836.94;4997043;28;20068;-29
2022/05/27 09:53:05;;;;;;;;;;;;;;;17.94;56.13;100834.97;4997996;28;20293;-29
2022/05/27 09:56:02;;;;;;;;;;;;;;;18.00;56.15;100839.22;5001946;28;19924;-29
2022/05/27 09:58:29;;;;;;;;;;;;;;;18.05;56.22;100830.09;4988035;28;19918;-29
2022/05/27 10:00:54;;;;;;;;;;;;;;;18.12;55.87;100835.22;4994644;28;19924;-29
2022/05/27 10:03:24;;;;;;;;;;;;;;;18.19;56.40;100826.94;4996403;28;19914;-29
2022/05/27 10:05:52;;;;;;;;;;;;;;;18.25;55.89;100825.81;4983502;28;19917;-29
2022/05/27 10:08:24;;;;;;;;;;;;;;;18.31;56.03;100824.72;4999485;28;19952;-29
2022/05/27 10:10:50;;;;;;;;;;;;;;;18.36;55.89;100809.38;4988589;28;19917;-28
2022/05/27 10:13:19;;;;;;;;;;;;;;;18.44;56.40;100809.09;4993622;28;19909;-28
2022/05/27 10:15:44;;;;;;;;;;;;;;;18.51;55.93;100820.38;4996191;28;20373;-29
2022/05/27 10:18:22;;;;;;;;;;;;;;;18.55;55.44;100822.88;4974037;28;19921;-29
2022/05/27 10:21:01;;;;;;;;;;;;;;;18.62;55.77;100811.91;4989961;28;20004;-29
2022/05/27 10:23:46;;;;;;;;;;;;;;;18.70;55.35;100813.34;4981103;28;19916;-29
2022/05/27 10:26:19;;;;;;;;;;;;;;;18.78;55.90;100813.03;4993067;28;20293;-29
2022/05/27 10:28:44;;;;;;;;;;;;;;;18.85;55.53;100809.16;4991740;28;19909;-29
2022/05/27 10:31:16;;;;;;;;;;;;;;;18.94;55.82;100809.72;4991846;28;19914;-29
2022/05/27 10:33:43;;;;;;;;;;;;;;;19.03;55.08;100801.31;4992626;28;19913;-29
2022/05/27 10:36:27;;;;;;;;;;;;;;;19.09;54.10;100800.22;4994424;28;20262;-29
2022/05/27 10:39:03;;;;;;;;;;;;;;;19.14;53.94;100808.03;4997202;28;19914;-29
2022/05/27 10:41:36;;;;;;;;;;;;;;;19.18;53.40;100798.94;4994308;28;19914;-29
2022/05/27 10:44:02;;;;;;;;;;;;;;;19.21;53.83;100798.81;4986019;28;19936;-29
2022/05/27 10:46:30;;;;;;;;;;;;;;;19.21;54.78;100794.31;4984605;28;19965;-29
2022/05/27 10:49:04;;;;;;;;;;;;;;;19.20;56.29;100781.03;4992512;28;20460;-29
2022/05/27 10:51:35;;;;;;;;;;;;;;;19.21;56.12;100777.44;5002224;28;20286;-29
2022/05/27 10:54:19;;;;;;;;;;;;;;;19.32;56.71;100803.69;5000006;28;19918;-29
2022/05/27 11:02:53;;;;;;;;;;;;;;;19.60;57.01;100763.19;4996359;28;19916;-29
2022/05/27 11:05:45;;;;;;;;;;;;;;;19.73;56.38;100765.31;4996683;28;19917;-29
2022/05/27 11:08:24;;;;;;;;;;;;;;;19.85;55.93;100774.56;4990896;28;19917;-28
2022/05/27 11:10:49;;;;;;;;;;;;;;;19.94;55.74;100770.63;4996885;28;20357;-28
2022/05/27 11:16:17;;;;;;;;;;;;;;;20.26;55.31;100770.91;4994204;28;19917;-28
2022/05/27 11:18:54;;;;;;;;;;;;;;;20.30;54.84;100755.56;4997789;28;19920;-28
2022/05/27 11:21:28;;;;;;;;;;;;;;;20.34;54.35;100770.53;4982749;28;19917;-28
2022/05/27 11:23:53;;;;;;;;;;;;;;;20.33;54.15;100777.69;4998550;28;19917;-28
2022/05/27 11:26:37;;;;;;;;;;;;;;;20.28;53.83;100774.38;4998395;28;19917;-28
2022/05/27 11:29:20;;;;;;;;;;;;;;;20.28;53.84;100777.06;4997499;28;20361;-28
2022/05/27 11:31:49;;;;;;;;;;;;;;;20.25;52.93;100780.72;4984623;28;19920;-28
2022/05/27 11:34:22;;;;;;;;;;;;;;;20.20;52.54;100771.19;4994878;28;20374;-28
2022/05/27 11:37:05;;;;;;;;;;;;;;;20.18;52.58;100763.25;4982468;28;20326;-28
2022/05/27 11:39:51;;;;;;;;;;;;;;;20.18;52.58;100773.09;4996674;28;19932;-28
2022/05/27 11:42:25;;;;;;;;;;;;;;;20.16;51.75;100775.84;4996700;28;19910;-28
2022/05/27 11:45:09;;;;;;;;;;;;;;;20.17;52.41;100771.34;4994353;28;20008;-30
2022/05/27 11:47:54;;;;;;;;;;;;;;;20.17;52.13;100777.56;4996175;28;19996;-29
2022/05/27 11:50:22;;;;;;;;;;;;;;;20.19;51.49;100751.59;4996745;28;20376;-30
2022/05/27 11:53:08;;;;;;;;;;;;;;;20.17;51.93;100753.47;4999008;28;19965;-29
2022/05/27 11:55:38;;;;;;;;;;;;;;;20.24;51.68;100746.03;4984785;28;20266;-30
2022/05/27 11:58:06;;;;;;;;;;;;;;;20.30;51.58;100755.56;4995518;28;19917;-30
2022/05/27 12:00:34;;;;;;;;;;;;;;;20.33;51.68;100739.31;4989154;28;19960;-29
2022/05/27 12:02:59;;;;;;;;;;;;;;;20.40;50.68;100750.63;4974513;28;19922;-30
2022/05/27 12:05:28;;;;;;;;;;;;;;;20.46;49.99;100748.50;4999825;28;19920;-29
2022/05/27 12:07:59;;;;;;;;;;;;;;;20.53;48.21;100750.88;4985082;28;19929;-30
2022/05/27 12:10:50;;;;;;;;;;;;;;;20.54;45.83;100747.25;4985603;28;20124;-30
2022/05/27 12:13:27;;;;;;;;;;;;;;;20.58;45.20;100738.97;4995167;28;19910;-30
2022/05/27 12:15:53;;;;;;;;;;;;;;;20.50;43.58;100744.72;5000702;28;19961;-30
2022/05/27 12:18:20;;;;;;;;;;;;;;;20.49;42.84;100750.16;4987654;28;19914;-29
2022/05/27 12:20:45;;;;;;;;;;;;;;;20.40;42.00;100750.63;4986581;28;19920;-30
2022/05/27 12:23:11;;;;;;;;;;;;;;;20.34;41.30;100746.44;4980209;28;19922;-29
2022/05/27 12:25:37;;;;;;;;;;;;;;;20.43;41.80;100745.09;4982246;28;19917;-30
2022/05/27 12:28:02;;;;;;;;;;;;;;;20.51;40.69;100756.31;4979065;28;20095;-29
2022/05/27 12:30:34;;;;;;;;;;;;;;;20.54;38.02;100748.09;4996726;28;20421;-29
2022/05/27 12:32:59;;;;;;;;;;;;;;;20.50;38.06;100742.03;4995092;28;19918;-29
2022/05/27 12:35:26;;;;;;;;;;;;;;;20.59;38.25;100740.72;4995501;28;19975;-29
2022/05/27 12:38:04;;;;;;;;;;;;;;;20.63;38.35;100746.78;4993677;28;19949;-30
2022/05/27 12:40:30;;;;;;;;;;;;;;;20.69;37.12;100742.91;4990730;28;19925;-30
2022/05/27 12:42:56;;;;;;;;;;;;;;;20.67;37.73;100743.00;5002800;28;19910;-30
2022/05/27 12:45:29;;;;;;;;;;;;;;;20.71;37.69;100743.72;4990193;28;20292;-30
2022/05/27 12:47:55;;;;;;;;;;;;;;;20.74;37.40;100738.22;4989861;28;19913;-30
2022/05/27 12:50:25;;;;;;;;;;;;;;;20.67;36.33;100732.28;4996540;28;19928;-29
2022/05/27 12:52:52;;;;;;;;;;;;;;;20.64;35.86;100748.50;4986955;28;20335;-29
2022/05/27 13:00:55;;;;;;;;;;;;;;;20.59;36.05;100755.91;4986785;28;20388;-28
2022/05/27 13:01:07;;;;;;;;;;;;;;;20.52;42.14;100736.63;4989256;28;19928;-29
2022/05/27 13:03:33;;;;;;;;;;;;;;;20.52;42.02;100747.31;4987040;28;20403;-29
2022/05/27 13:06:11;;;;;;;;;;;;;;;20.63;43.54;100736.94;4999554;28;20352;-28
2022/05/27 13:08:43;;;;;;;;;;;;;;;20.69;43.12;100721.47;5001139;28;19913;-29
2022/05/27 13:11:21;;;;;;;;;;;;;;;20.83;44.06;100727.00;4999048;28;19985;-28
2022/05/27 13:13:46;;;;;;;;;;;;;;;20.96;43.06;100719.22;4991908;28;19961;-28
2022/05/27 13:16:22;;;;;;;;;;;;;;;21.06;42.79;100716.06;4993076;28;20334;-28